Rachel, WV (26587)

11:11 PM EDT on August 22, 2014 (GMT -0400)
Curtisville | Change Station
CLOSE
Current Station
Personal Weather Station
Location: Mannington, WV
Elevation: 1017 ft
Nearby Weather Stations

Elev 1017 ft 39.52 °N, 80.44 °W | Updated 51 seconds ago

Overcast
Overcast
71.8 °F
Feels Like 71.8 °F
N
0.0
Wind Variable Wind from West

Today
High -- | Low -- °F
--% Chance of Precip.
Yesterday
High -- | Low -- °F
Precip. -- in
6:40 AM 8:07 PM
Waning Crescent, 5% visible
Pressure 29.97 in
Visibility 10.0 miles
Clouds Few 2900 ft
Mostly Cloudy 3700 ft
Overcast 8000 ft
Dew Point 72 °F
Humidity 99%
Rainfall 0.15 in
Snow Depth Not available.
UV 0 out of 12
Pollen 7.60 out of 12
Air Quality Not available.
Flu Activity Not available.
METAR KCKB 230253Z 17003KT 10SM FEW029 BKN037 OVC080 23/21 A3001 RMK AO2 SLP148 T02280211 51008

More Conditions Fewer Conditions

Pressure 29.97 in
Visibility 10.0 miles
Clouds Few 2900 ft
Mostly Cloudy 3700 ft
Overcast 8000 ft
Dew Point 72 °F
Humidity 99%
Rainfall 0.15 in
Snow Depth Not available.
UV 0 out of 12
Pollen 7.60 out of 12
Air Quality Not available.
Flu Activity Not available.
METAR KCKB 230253Z 17003KT 10SM FEW029 BKN037 OVC080 23/21 A3001 RMK AO2 SLP148 T02280211 51008

More Conditions Fewer Conditions

10-Day Weather Forecast

Almanac

Astronomy

Aug. 22, 2014 Rise Set
Actual Time 6:40 AM EDT 8:07 PM EDT
Civil Twilight 6:11 AM EDT 8:35 PM EDT
Nautical Twilight 5:37 AM EDT 9:09 PM EDT
Astronomical Twilight 5:02 AM EDT 9:44 PM EDT
Moon 4:01 AM EDT (8/22) 6:14 PM EDT (8/22)
Length of Visible Light 14h 23m
Length of Day
13h 27m
Tomorrow will be 2m 23s shorter.
Waning Crescent, 5% of the Moon is Illuminated
Today
Waning Crescent
Aug 25
New
Sep 2
First Quarter
Sep 8
Full
Sep 15
Last Quarter

Today's Extremes

State Highs State Lows

Community

WunderPhotos

Upload Photos

1,746,345 photos uploaded!

WunderBlogs® & News

Nearby

Snow Depth

Station Depth Elevation
No new snow has been reported.

Earthquake Activity

City Distance Mag. Time & Date
No recent earthquake activity has been reported nearby.
Minimum magnitude displayed is 2.5.

Coastal Water Temperatures

Place Temperature
No Stations Reporting

Nearby Weather Stations